createdAt,value
2023-02-05T00:01:48.641Z,93461.84
2023-02-05T00:04:16.639Z,93470.16
2023-02-05T00:06:45.322Z,93472.13
2023-02-05T00:09:13.287Z,93473.63
2023-02-05T00:11:41.300Z,93477.19
2023-02-05T00:14:09.252Z,93469.53
2023-02-05T00:16:37.577Z,93485.81
2023-02-05T00:19:05.497Z,93458.81
2023-02-05T00:21:33.523Z,93490.06
2023-02-05T00:24:01.600Z,93484.34
2023-02-05T00:26:29.475Z,93483.38
2023-02-05T00:28:57.626Z,93492.81
2023-02-05T00:31:26.079Z,93501.28
2023-02-05T00:33:54.142Z,93504.22
2023-02-05T00:36:23.321Z,93499.69
2023-02-05T00:38:52.690Z,93494.31
2023-02-05T00:41:20.941Z,93522.16
2023-02-05T00:43:48.891Z,93510.25
2023-02-05T00:46:17.180Z,93506.34
2023-02-05T00:48:45.195Z,93510.25
2023-02-05T00:51:13.163Z,93502.94
2023-02-05T00:53:41.205Z,93511.53
2023-02-05T00:56:09.214Z,93514.34
2023-02-05T00:58:37.436Z,93518.72
2023-02-05T01:01:08.552Z,93521.16
2023-02-05T01:03:36.594Z,93515.13
2023-02-05T01:06:05.444Z,93517.41
2023-02-05T01:08:33.630Z,93512.03
2023-02-05T01:11:02.210Z,93517.91
2023-02-05T01:13:30.139Z,93515.16
2023-02-05T01:15:58.156Z,93510.91
2023-02-05T01:18:27.412Z,93516.25
2023-02-05T01:20:55.515Z,93515.94
2023-02-05T01:23:23.504Z,93523.59
2023-02-05T01:25:51.540Z,93524.25
2023-02-05T01:28:19.603Z,93522.13
2023-02-05T01:30:49.584Z,93517.25
2023-02-05T01:33:18.628Z,93521.97
2023-02-05T01:35:46.713Z,93524.56
2023-02-05T01:38:15.655Z,93516.59
2023-02-05T01:40:43.815Z,93529.78
2023-02-05T01:43:16.549Z,93525.38
2023-02-05T01:45:55.773Z,93530.94
2023-02-05T01:48:32.869Z,93537.44
2023-02-05T01:51:05.995Z,93531.06
2023-02-05T01:53:36.494Z,93543.28
2023-02-05T01:56:13.331Z,93539.22
2023-02-05T01:58:47.559Z,93505.19
2023-02-05T02:01:15.803Z,93533.50
2023-02-05T02:03:44.644Z,93535.31
2023-02-05T02:06:12.747Z,93537.59
2023-02-05T02:08:41.604Z,93494.94
2023-02-05T02:11:11.800Z,93545.06
2023-02-05T02:13:41.804Z,93549.97
2023-02-05T02:16:10.009Z,93550.44
2023-02-05T02:18:39.612Z,93543.44
2023-02-05T02:21:36.302Z,93547.19
2023-02-05T02:24:28.862Z,93549.97
2023-02-05T02:27:21.821Z,93550.13
2023-02-05T02:30:02.216Z,93543.94
2023-02-05T02:32:56.552Z,93551.91
2023-02-05T02:35:52.984Z,93564.28
2023-02-05T02:38:51.614Z,93559.84
2023-02-05T02:41:35.615Z,93551.91
2023-02-05T02:44:11.725Z,93557.41
2023-02-05T02:46:57.169Z,93560.34
2023-02-05T02:49:34.569Z,93558.38
2023-02-05T02:52:06.545Z,93561.66
2023-02-05T02:54:37.646Z,93565.53
2023-02-05T02:58:43.468Z,93561.63
2023-02-05T03:01:13.644Z,93561.16
2023-02-05T03:03:44.680Z,93558.69
2023-02-05T03:06:14.910Z,93562.75
2023-02-05T03:08:56.573Z,93553.13
2023-02-05T03:11:26.529Z,93574.13
2023-02-05T03:13:56.528Z,93575.56
2023-02-05T03:16:30.235Z,93571.06
2023-02-05T03:18:58.783Z,93581.94
2023-02-05T03:21:34.324Z,93586.25
2023-02-05T03:24:02.459Z,93580.53
2023-02-05T03:26:33.305Z,93581.19
2023-02-05T03:29:26.909Z,93586.19
2023-02-05T03:32:28.278Z,93578.38
2023-02-05T03:35:02.103Z,93585.66
2023-02-05T03:37:47.643Z,93596.03
2023-02-05T03:40:43.869Z,93588.22
2023-02-05T03:43:14.191Z,93589.53
2023-02-05T03:46:15.345Z,93588.69
2023-02-05T03:49:17.074Z,93594.53
2023-02-05T03:52:04.132Z,93589.00
2023-02-05T03:54:39.141Z,93592.72
2023-02-05T03:57:28.951Z,93602.81
2023-02-05T03:59:59.465Z,93606.38
2023-02-05T04:02:29.290Z,93596.47
2023-02-05T04:04:58.149Z,93601.06
2023-02-05T04:07:26.573Z,93603.63
2023-02-05T04:09:54.625Z,93602.81
2023-02-05T04:12:23.325Z,93609.28
2023-02-05T04:14:51.419Z,93608.34
2023-02-05T04:17:19.452Z,93602.09
2023-02-05T04:19:47.815Z,93609.03
2023-02-05T04:22:17.689Z,93612.03
2023-02-05T04:24:47.786Z,93603.16
2023-02-05T04:27:16.163Z,93598.34
2023-02-05T04:29:44.490Z,93611.22
2023-02-05T04:32:13.008Z,93621.66
2023-02-05T04:34:41.190Z,93628.81
2023-02-05T04:37:12.331Z,93636.25
2023-02-05T04:39:41.140Z,93631.88
2023-02-05T04:42:09.087Z,93633.44
2023-02-05T04:44:37.334Z,93638.66
2023-02-05T04:47:05.218Z,93614.81
2023-02-05T04:49:34.029Z,93639.25
2023-02-05T04:52:02.399Z,93637.16
2023-02-05T04:54:30.416Z,93633.53
2023-02-05T04:56:58.328Z,93628.41
2023-02-05T04:59:26.602Z,93637.78
2023-02-05T05:01:54.636Z,93638.88
2023-02-05T05:04:22.703Z,93649.34
2023-02-05T05:06:50.598Z,93631.59
2023-02-05T05:09:21.148Z,93643.72
2023-02-05T05:11:49.209Z,93628.06
2023-02-05T05:14:17.146Z,93648.38
2023-02-05T05:16:45.631Z,93649.19
2023-02-05T05:19:13.508Z,93654.94
2023-02-05T05:21:41.629Z,93649.66
2023-02-05T05:24:09.568Z,93653.72
2023-02-05T05:26:39.528Z,93653.72
2023-02-05T05:29:07.413Z,93659.38
2023-02-05T05:31:35.523Z,93674.16
2023-02-05T05:34:03.641Z,93663.59
2023-02-05T05:36:31.669Z,93673.50
2023-02-05T05:39:19.469Z,93669.41
2023-02-05T05:42:06.018Z,93681.97
2023-02-05T05:44:34.030Z,93689.03
2023-02-05T05:47:01.822Z,93689.03
2023-02-05T05:49:29.980Z,93699.41
2023-02-05T05:51:57.911Z,93688.63
2023-02-05T05:54:25.893Z,93696.22
2023-02-05T05:56:53.867Z,93699.03
2023-02-05T05:59:21.857Z,93694.06
2023-02-05T06:01:49.863Z,93709.81
2023-02-05T06:04:17.863Z,93698.75
2023-02-05T06:06:45.959Z,93711.00
2023-02-05T06:09:13.893Z,93700.09
2023-02-05T06:11:41.695Z,93710.75
2023-02-05T06:14:09.692Z,93711.59
2023-02-05T06:16:37.667Z,93703.50
2023-02-05T06:19:05.910Z,93707.50
2023-02-05T06:21:33.885Z,93709.16
2023-02-05T06:24:01.955Z,93707.88
2023-02-05T06:26:29.958Z,93713.75
2023-02-05T06:29:03.432Z,93708.09
2023-02-05T06:31:32.238Z,93713.16
2023-02-05T06:34:01.532Z,93726.75
2023-02-05T06:36:29.548Z,93723.94
2023-02-05T06:38:57.492Z,93732.13
2023-02-05T06:41:25.547Z,93739.72
2023-02-05T06:43:53.380Z,93736.09
2023-02-05T06:46:21.528Z,93741.84
2023-02-05T06:48:49.655Z,93737.91
2023-02-05T06:51:17.567Z,93750.09
2023-02-05T06:53:45.632Z,93739.09
2023-02-05T06:56:13.585Z,93755.16
2023-02-05T06:58:41.724Z,93741.13
2023-02-05T07:01:09.775Z,93742.38
2023-02-05T07:03:37.748Z,93740.97
2023-02-05T07:06:06.687Z,93747.31
2023-02-05T07:08:35.430Z,93753.34
2023-02-05T07:11:03.521Z,93761.91
2023-02-05T07:13:31.405Z,93756.41
2023-02-05T07:16:03.913Z,93758.13
2023-02-05T07:18:33.985Z,93752.97
2023-02-05T07:21:07.079Z,93770.13
2023-02-05T07:23:36.053Z,93766.25
2023-02-05T07:26:12.543Z,93780.00
2023-02-05T07:28:41.716Z,93773.72
2023-02-05T07:31:12.840Z,93773.84
2023-02-05T07:33:42.167Z,93781.41
2023-02-05T07:36:11.917Z,93787.25
2023-02-05T07:38:40.571Z,93784.00
2023-02-05T07:41:11.753Z,93785.72
2023-02-05T07:43:40.591Z,93779.25
2023-02-05T07:48:40.110Z,93800.41
2023-02-05T07:51:08.376Z,93800.69
2023-02-05T07:53:36.478Z,93809.75
2023-02-05T07:56:10.663Z,93809.63
2023-02-05T07:58:38.867Z,93800.81
2023-02-05T08:01:07.677Z,93798.72
2023-02-05T08:03:36.527Z,93807.91
2023-02-05T08:06:09.958Z,93804.31
2023-02-05T08:08:38.080Z,93810.84
2023-02-05T08:11:07.144Z,93818.84
2023-02-05T08:13:35.538Z,93817.09
2023-02-05T08:16:07.838Z,93819.38
2023-02-05T08:18:36.120Z,93809.66
2023-02-05T08:21:04.582Z,93829.88
2023-02-05T08:23:33.103Z,93832.59
2023-02-05T08:26:01.072Z,93834.28
2023-02-05T08:28:29.661Z,93840.06
2023-02-05T08:30:57.917Z,93841.53
2023-02-05T08:33:26.053Z,93834.69
2023-02-05T08:35:54.151Z,93833.03
2023-02-05T08:38:22.278Z,93847.63
2023-02-05T08:40:50.178Z,93847.97
2023-02-05T08:43:18.302Z,93860.16
2023-02-05T08:45:48.271Z,93847.44
2023-02-05T08:48:16.252Z,93851.56
2023-02-05T08:50:47.499Z,93851.91
2023-02-05T08:53:15.606Z,93852.88
2023-02-05T08:55:43.467Z,93859.03
2023-02-05T08:58:11.431Z,93853.88
2023-02-05T09:00:40.320Z,93843.16
2023-02-05T09:03:09.084Z,93855.91
2023-02-05T09:05:39.556Z,93869.13
2023-02-05T09:08:07.663Z,93862.03
2023-02-05T09:10:36.024Z,93869.56
2023-02-05T09:13:04.246Z,93876.78
2023-02-05T09:15:33.199Z,93868.13
2023-02-05T09:18:01.546Z,93873.19
2023-02-05T09:20:29.845Z,93871.53
2023-02-05T09:22:57.974Z,93872.34
2023-02-05T09:25:26.007Z,93874.06
2023-02-05T09:27:54.100Z,93874.75
2023-02-05T09:30:22.430Z,93884.25
2023-02-05T09:32:51.010Z,93885.25
2023-02-05T09:35:18.875Z,93895.22
2023-02-05T09:37:47.182Z,93891.75
2023-02-05T09:40:23.675Z,93889.91
2023-02-05T09:43:17.891Z,93891.53
2023-02-05T09:46:01.333Z,93878.88
2023-02-05T09:48:29.647Z,93875.31
2023-02-05T09:50:59.021Z,93869.25
2023-02-05T09:53:36.081Z,93864.22
2023-02-05T09:56:08.427Z,93872.72
2023-02-05T09:58:43.931Z,93873.22
2023-02-05T10:01:29.980Z,93880.56
2023-02-05T10:04:09.814Z,93873.72
2023-02-05T10:07:15.912Z,93883.59
2023-02-05T10:09:55.210Z,93878.19
2023-02-05T10:12:30.956Z,93876.44
2023-02-05T10:15:28.650Z,93869.81
2023-02-05T10:17:59.621Z,93873.25
2023-02-05T10:20:39.130Z,93869.00
2023-02-05T10:23:20.808Z,93881.81
2023-02-05T10:25:58.471Z,93875.53
2023-02-05T10:28:38.748Z,93881.44
2023-02-05T10:31:15.335Z,93877.63
2023-02-05T10:33:57.691Z,93880.09
2023-02-05T10:36:27.378Z,93884.84
2023-02-05T10:38:57.635Z,93865.47
2023-02-05T10:41:48.932Z,93875.97
2023-02-05T10:44:30.292Z,93885.94
2023-02-05T10:47:06.863Z,93879.09
2023-02-05T10:49:40.644Z,93883.63
2023-02-05T10:52:14.498Z,93897.63
2023-02-05T10:54:43.048Z,93889.44
2023-02-05T10:57:34.530Z,93890.66
2023-02-05T11:00:22.894Z,93889.75
2023-02-05T11:02:55.074Z,93888.25
2023-02-05T11:05:39.867Z,93885.66
2023-02-05T11:08:34.791Z,93890.88
2023-02-05T11:11:06.089Z,93899.63
2023-02-05T11:13:41.789Z,93900.00
2023-02-05T11:16:14.224Z,93912.16
2023-02-05T11:18:58.394Z,93901.72
2023-02-05T11:21:57.122Z,93905.69
2023-02-05T11:24:51.196Z,93912.66
2023-02-05T11:27:31.644Z,93906.88
2023-02-05T11:30:42.101Z,93912.88
2023-02-05T11:33:21.716Z,93910.44
2023-02-05T11:35:57.142Z,93902.41
2023-02-05T11:38:46.949Z,93907.59
2023-02-05T11:41:28.687Z,93904.13
2023-02-05T11:44:02.434Z,93917.59
2023-02-05T11:46:46.328Z,93919.09
2023-02-05T11:49:23.260Z,93909.97
2023-02-05T11:51:56.305Z,93905.97
2023-02-05T11:54:33.665Z,93910.91
2023-02-05T11:57:11.352Z,93906.94
2023-02-05T11:59:41.199Z,93895.34
2023-02-05T12:05:18.171Z,93900.72
2023-02-05T12:08:07.004Z,93910.03
2023-02-05T12:11:19.442Z,93909.44
2023-02-05T12:14:24.385Z,93912.22
2023-02-05T12:17:01.986Z,93913.53
2023-02-05T12:19:52.229Z,93916.44
2023-02-05T12:22:45.031Z,93910.22
2023-02-05T12:25:34.689Z,93914.59
2023-02-05T12:28:22.247Z,93920.16
2023-02-05T12:31:22.615Z,93911.56
2023-02-05T12:34:23.519Z,93924.50
2023-02-05T12:37:12.446Z,93935.06
2023-02-05T12:39:52.958Z,93927.38
2023-02-05T12:42:36.000Z,93920.97
2023-02-05T12:45:16.319Z,93916.63
2023-02-05T12:48:05.841Z,93922.00
2023-02-05T12:50:42.731Z,93926.53
2023-02-05T12:53:32.065Z,93931.94
2023-02-05T12:56:31.410Z,93925.34
2023-02-05T12:59:41.512Z,93934.41
2023-02-05T13:02:18.147Z,93927.34
2023-02-05T13:04:52.717Z,93929.00
2023-02-05T13:07:31.127Z,93939.75
2023-02-05T13:10:04.936Z,93937.56
2023-02-05T13:12:38.325Z,93934.31
2023-02-05T13:15:18.156Z,93939.53
2023-02-05T13:17:59.132Z,93933.94
2023-02-05T13:21:01.159Z,93941.19
2023-02-05T13:23:50.175Z,93925.97
2023-02-05T13:26:25.330Z,93935.66
2023-02-05T13:29:00.882Z,93938.97
2023-02-05T13:31:38.990Z,93937.91
2023-02-05T13:34:09.763Z,93942.34
2023-02-05T13:37:06.356Z,93939.25
2023-02-05T13:40:13.554Z,93949.84
2023-02-05T13:43:12.246Z,93941.72
2023-02-05T13:46:05.227Z,93943.97
2023-02-05T13:48:52.050Z,93936.44
2023-02-05T13:51:54.906Z,93941.63
2023-02-05T13:54:38.282Z,93943.84
2023-02-05T13:57:30.926Z,93950.75
2023-02-05T14:00:01.116Z,93946.34
2023-02-05T14:02:37.551Z,93947.69
2023-02-05T14:05:07.903Z,93954.75
2023-02-05T14:07:46.496Z,93959.19
2023-02-05T14:10:26.738Z,93953.66
2023-02-05T14:13:09.995Z,93955.91
2023-02-05T14:15:42.021Z,93957.34
2023-02-05T14:18:45.474Z,93959.38
2023-02-05T14:21:31.888Z,93956.44
2023-02-05T14:24:24.544Z,93960.88
2023-02-05T14:26:57.996Z,93960.03
2023-02-05T14:29:46.961Z,93956.59
2023-02-05T14:32:30.277Z,93965.59
2023-02-05T14:35:02.733Z,93958.91
2023-02-05T14:37:37.529Z,93963.63
2023-02-05T14:40:47.609Z,93962.63
2023-02-05T14:43:36.476Z,93958.06
2023-02-05T14:46:20.990Z,93953.34
2023-02-05T14:48:49.184Z,93954.66
2023-02-05T14:51:39.160Z,93954.63
2023-02-05T14:54:17.497Z,93951.53
2023-02-05T14:56:54.634Z,93959.53
2023-02-05T14:59:30.877Z,93948.47
2023-02-05T15:02:00.298Z,93955.78
2023-02-05T15:04:40.263Z,93952.97
2023-02-05T15:07:13.999Z,93947.41
2023-02-05T15:09:58.728Z,93968.06
2023-02-05T15:13:01.745Z,93975.25
2023-02-05T15:15:35.642Z,93976.69
2023-02-05T15:18:15.724Z,93982.00
2023-02-05T15:20:48.336Z,93985.69
2023-02-05T15:23:16.836Z,93989.34
2023-02-05T15:25:53.293Z,93992.38
2023-02-05T15:28:39.846Z,94000.34
2023-02-05T15:31:30.052Z,93990.63
2023-02-05T15:34:41.675Z,94000.28
2023-02-05T15:37:09.674Z,94005.34
2023-02-05T15:39:45.405Z,94004.84
2023-02-05T15:42:18.600Z,94013.56
2023-02-05T15:44:46.556Z,94010.50
2023-02-05T15:47:23.428Z,93979.94
2023-02-05T15:49:57.769Z,94016.22
2023-02-05T15:52:34.703Z,94010.66
2023-02-05T15:55:13.489Z,94021.19
2023-02-05T15:57:51.892Z,94013.97
2023-02-05T16:03:34.707Z,94024.91
2023-02-05T16:12:24.709Z,94034.91
2023-02-05T16:15:19.372Z,94030.75
2023-02-05T16:25:29.420Z,94042.13
2023-02-05T16:27:59.792Z,94044.00
2023-02-05T16:30:56.836Z,94043.28
2023-02-05T16:33:33.126Z,94048.69
2023-02-05T16:36:05.041Z,94042.81
2023-02-05T16:38:35.892Z,94039.19
2023-02-05T16:41:28.967Z,94035.78
2023-02-05T16:44:01.175Z,94034.44
2023-02-05T16:49:28.426Z,94030.66
2023-02-05T16:51:59.957Z,94027.25
2023-02-05T16:54:33.060Z,94029.16
2023-02-05T16:57:13.307Z,94036.03
2023-02-05T17:00:24.415Z,94030.53
2023-02-05T17:03:08.898Z,94033.69
2023-02-05T17:05:37.780Z,94038.22
2023-02-05T17:08:12.980Z,94044.13
2023-02-05T17:11:01.300Z,94037.09
2023-02-05T17:13:47.308Z,94029.19
2023-02-05T17:16:33.514Z,94034.88
2023-02-05T17:19:06.259Z,94039.09
2023-02-05T17:21:37.152Z,94044.72
2023-02-05T17:24:10.093Z,94044.03
2023-02-05T17:26:41.302Z,94042.22
2023-02-05T17:29:16.117Z,94044.72
2023-02-05T17:31:45.362Z,94032.22
2023-02-05T17:34:14.217Z,94039.97
2023-02-05T17:36:43.021Z,94017.69
2023-02-05T17:39:13.969Z,94042.09
2023-02-05T17:42:02.134Z,94032.91
2023-02-05T17:44:32.425Z,94018.81
2023-02-05T17:47:06.997Z,94036.44
2023-02-05T17:49:35.528Z,94040.81
2023-02-05T17:52:04.055Z,94038.66
2023-02-05T17:54:32.844Z,94036.28
2023-02-05T17:57:25.567Z,94046.75
2023-02-05T17:59:55.988Z,94045.91
2023-02-05T18:02:24.642Z,94049.34
2023-02-05T18:04:53.761Z,94047.00
2023-02-05T18:07:39.008Z,94058.38
2023-02-05T18:10:10.578Z,94060.81
2023-02-05T18:12:39.828Z,94055.91
2023-02-05T18:15:08.825Z,94052.69
2023-02-05T18:17:37.566Z,94045.38
2023-02-05T18:20:06.935Z,94057.94
2023-02-05T18:22:36.021Z,94062.09
2023-02-05T18:25:06.255Z,94061.94
2023-02-05T18:27:34.931Z,94056.47
2023-02-05T18:30:03.964Z,94052.09
2023-02-05T18:32:33.078Z,94042.00
2023-02-05T18:35:01.737Z,94054.88
2023-02-05T18:37:30.380Z,94062.66
2023-02-05T18:39:59.320Z,94039.72
2023-02-05T18:42:27.878Z,94050.34
2023-02-05T18:44:56.603Z,94045.53
2023-02-05T18:47:28.365Z,94050.19
2023-02-05T18:49:57.078Z,94049.25
2023-02-05T18:52:27.656Z,94050.84
2023-02-05T18:54:56.308Z,94051.97
2023-02-05T18:57:24.688Z,94051.28
2023-02-05T18:59:54.255Z,94043.03
2023-02-05T19:02:22.892Z,94052.09
2023-02-05T19:04:56.098Z,94049.78
2023-02-05T19:07:25.336Z,94052.88
2023-02-05T19:09:54.139Z,94054.78
2023-02-05T19:12:22.483Z,94040.88
2023-02-05T19:14:51.087Z,94053.97
2023-02-05T19:17:21.033Z,94045.44
2023-02-05T19:19:50.407Z,94038.06
2023-02-05T19:22:19.171Z,94051.25
2023-02-05T19:24:47.680Z,94050.50
2023-02-05T19:27:17.440Z,94053.09
2023-02-05T19:29:45.848Z,94045.13
2023-02-05T19:32:14.292Z,94059.19
2023-02-05T19:34:43.631Z,94046.69
2023-02-05T19:37:12.524Z,94045.88
2023-02-05T19:39:41.398Z,94057.25
2023-02-05T19:42:10.542Z,94061.78
2023-02-05T19:44:38.952Z,94050.84
2023-02-05T19:47:09.174Z,94058.44
2023-02-05T19:49:37.918Z,94064.19
2023-02-05T19:52:07.761Z,94045.75
2023-02-05T19:54:38.708Z,94059.53
2023-02-05T19:57:07.251Z,94059.06
2023-02-05T19:59:35.573Z,94073.16
2023-02-05T20:02:04.613Z,94065.63
2023-02-05T20:04:33.185Z,94064.28
2023-02-05T20:07:01.644Z,94072.38
2023-02-05T20:09:32.286Z,94064.16
2023-02-05T20:12:01.424Z,94066.75
2023-02-05T20:14:29.995Z,94065.56
2023-02-05T20:16:59.290Z,94068.28
2023-02-05T20:19:28.000Z,94064.91
2023-02-05T20:21:56.403Z,94058.38
2023-02-05T20:24:24.870Z,94077.47
2023-02-05T20:26:53.433Z,94075.59
2023-02-05T20:29:40.361Z,94057.41
2023-02-05T20:32:10.211Z,94062.44
2023-02-05T20:34:41.245Z,94059.31
2023-02-05T20:37:09.994Z,94065.31
2023-02-05T20:39:45.649Z,94066.16
2023-02-05T20:42:14.756Z,94072.41
2023-02-05T20:44:43.820Z,94076.56
2023-02-05T20:47:14.786Z,94068.06
2023-02-05T20:49:43.347Z,94076.56
2023-02-05T20:52:12.229Z,94071.63
2023-02-05T20:54:40.975Z,94078.19
2023-02-05T20:57:09.331Z,94080.50
2023-02-05T20:59:37.754Z,94079.44
2023-02-05T21:02:06.443Z,94073.69
2023-02-05T21:04:36.111Z,94081.06
2023-02-05T21:07:04.164Z,94077.78
2023-02-05T21:09:32.639Z,94070.69
2023-02-05T21:12:00.694Z,94088.59
2023-02-05T21:14:29.492Z,94093.22
2023-02-05T21:16:57.530Z,94097.59
2023-02-05T21:19:26.005Z,94102.50
2023-02-05T21:21:56.342Z,94100.88
2023-02-05T21:24:24.719Z,94097.88
2023-02-05T21:26:52.928Z,94096.22
2023-02-05T21:29:21.865Z,94099.63
2023-02-05T21:31:56.031Z,94098.53
2023-02-05T21:34:29.526Z,94109.63
2023-02-05T21:36:57.819Z,94094.31
2023-02-05T21:39:26.087Z,94108.69
2023-02-05T21:41:55.005Z,94109.75
2023-02-05T21:44:24.364Z,94107.44
2023-02-05T21:46:53.979Z,94109.88
2023-02-05T21:49:21.832Z,94104.28
2023-02-05T21:51:50.666Z,94111.66
2023-02-05T21:54:25.376Z,94093.91
2023-02-05T21:56:53.866Z,94110.16
2023-02-05T21:59:22.004Z,94109.75
2023-02-05T22:01:50.233Z,94114.13
2023-02-05T22:04:18.342Z,94119.31
2023-02-05T22:06:46.380Z,94117.69
2023-02-05T22:09:17.084Z,94117.84
2023-02-05T22:11:45.181Z,94114.69
2023-02-05T22:14:13.763Z,94115.75
2023-02-05T22:16:41.611Z,94100.06
2023-02-05T22:19:09.809Z,94113.44
2023-02-05T22:21:40.937Z,94108.00
2023-02-05T22:24:13.192Z,94120.56
2023-02-05T22:26:42.124Z,94126.44
2023-02-05T22:29:13.666Z,94125.72
2023-02-05T22:31:42.095Z,94120.28
2023-02-05T22:34:10.760Z,94126.41
2023-02-05T22:36:39.086Z,94121.78
2023-02-05T22:39:07.606Z,94120.53
2023-02-05T22:41:38.829Z,94119.59
2023-02-05T22:44:07.962Z,94102.53
2023-02-05T22:46:39.705Z,94114.28
2023-02-05T22:49:08.430Z,94103.59
2023-02-05T22:51:38.974Z,94101.69
2023-02-05T22:54:10.366Z,94112.34
2023-02-05T22:56:39.173Z,94104.16
2023-02-05T22:59:07.580Z,94085.59
2023-02-05T23:01:38.294Z,94106.88
2023-02-05T23:04:09.001Z,94099.09
2023-02-05T23:06:40.249Z,94083.38
2023-02-05T23:09:11.786Z,94104.97
2023-02-05T23:11:40.288Z,94101.56
2023-02-05T23:14:09.309Z,94102.63
2023-02-05T23:16:40.988Z,94106.75
2023-02-05T23:19:14.036Z,94101.41
2023-02-05T23:21:42.311Z,94100.06
2023-02-05T23:24:10.437Z,94097.47
2023-02-05T23:26:42.804Z,94105.09
2023-02-05T23:29:13.933Z,94096.63
2023-02-05T23:31:42.088Z,94087.34
2023-02-05T23:34:10.078Z,94111.00
2023-02-05T23:36:38.369Z,94101.28
2023-02-05T23:39:06.729Z,94113.56
2023-02-05T23:41:37.814Z,94114.41
2023-02-05T23:44:26.363Z,94114.13
2023-02-05T23:46:54.426Z,94117.97
2023-02-05T23:49:25.151Z,94107.00
2023-02-05T23:51:54.957Z,94120.00
2023-02-05T23:54:24.312Z,94121.66
2023-02-05T23:56:52.442Z,94128.06
2023-02-05T23:59:20.577Z,94120.28
